sensor_id;sensor_type;location;lat;lon;timestamp;pressure;altitude;pressure_sealevel;temperature;humidity
63088;BME280;49173;43.164;27.786;2024-02-28T00:01:37;101100.84;;;7.75;82.33
63088;BME280;49173;43.164;27.786;2024-02-28T00:04:02;101101.88;;;7.71;82.52
63088;BME280;49173;43.164;27.786;2024-02-28T00:06:28;101109.03;;;7.70;82.92
63088;BME280;49173;43.164;27.786;2024-02-28T00:08:53;101101.75;;;7.74;82.95
63088;BME280;49173;43.164;27.786;2024-02-28T00:11:20;101100.03;;;7.73;83.03
63088;BME280;49173;43.164;27.786;2024-02-28T00:13:45;101103.88;;;7.64;82.86
63088;BME280;49173;43.164;27.786;2024-02-28T00:16:11;101099.69;;;7.56;83.25
63088;BME280;49173;43.164;27.786;2024-02-28T00:18:37;101106.09;;;7.50;83.88
63088;BME280;49173;43.164;27.786;2024-02-28T00:21:02;101102.72;;;7.43;84.59
63088;BME280;49173;43.164;27.786;2024-02-28T00:23:29;101111.44;;;7.50;84.32
63088;BME280;49173;43.164;27.786;2024-02-28T00:25:55;101100.75;;;7.50;84.03
63088;BME280;49173;43.164;27.786;2024-02-28T00:28:20;101097.16;;;7.51;83.81
63088;BME280;49173;43.164;27.786;2024-02-28T00:30:46;101106.09;;;7.50;83.55
63088;BME280;49173;43.164;27.786;2024-02-28T00:33:11;101100.75;;;7.50;83.67
63088;BME280;49173;43.164;27.786;2024-02-28T00:35:39;101102.66;;;7.45;83.91
63088;BME280;49173;43.164;27.786;2024-02-28T00:38:05;101105.44;;;7.42;84.01
63088;BME280;49173;43.164;27.786;2024-02-28T00:40:30;101100.97;;;7.42;84.17
63088;BME280;49173;43.164;27.786;2024-02-28T00:42:56;101107.31;;;7.38;84.13
63088;BME280;49173;43.164;27.786;2024-02-28T00:45:22;101114.56;;;7.35;84.44
63088;BME280;49173;43.164;27.786;2024-02-28T00:47:47;101107.56;;;7.31;84.31
63088;BME280;49173;43.164;27.786;2024-02-28T00:50:13;101102.25;;;7.29;84.37
63088;BME280;49173;43.164;27.786;2024-02-28T00:52:39;101109.44;;;7.27;84.22
63088;BME280;49173;43.164;27.786;2024-02-28T00:55:05;101108.69;;;7.22;84.42
63088;BME280;49173;43.164;27.786;2024-02-28T00:57:31;101108.69;;;7.22;84.73
63088;BME280;49173;43.164;27.786;2024-02-28T00:59:57;101101.44;;;7.27;84.80
63088;BME280;49173;43.164;27.786;2024-02-28T01:02:22;101106.59;;;7.33;84.63
63088;BME280;49173;43.164;27.786;2024-02-28T01:04:48;101109.16;;;7.36;84.28
63088;BME280;49173;43.164;27.786;2024-02-28T01:07:14;101110.31;;;7.28;84.17
63088;BME280;49173;43.164;27.786;2024-02-28T01:09:41;101105.94;;;7.25;84.05
63088;BME280;49173;43.164;27.786;2024-02-28T01:12:07;101108.97;;;7.13;83.94
63088;BME280;49173;43.164;27.786;2024-02-28T01:14:33;101105.44;;;7.12;84.13
63088;BME280;49173;43.164;27.786;2024-02-28T01:16:58;101102.50;;;7.22;84.08
63088;BME280;49173;43.164;27.786;2024-02-28T01:19:24;101104.19;;;7.24;84.43
63088;BME280;49173;43.164;27.786;2024-02-28T01:21:50;101102.44;;;7.23;84.83
63088;BME280;49173;43.164;27.786;2024-02-28T01:24:15;101103.41;;;7.21;85.35
63088;BME280;49173;43.164;27.786;2024-02-28T01:26:41;101105.09;;;7.23;85.79
63088;BME280;49173;43.164;27.786;2024-02-28T01:29:06;101102.50;;;7.22;86.03
63088;BME280;49173;43.164;27.786;2024-02-28T01:31:32;101098.13;;;7.19;85.94
63088;BME280;49173;43.164;27.786;2024-02-28T01:33:58;101102.72;;;7.14;86.11
63088;BME280;49173;43.164;27.786;2024-02-28T01:36:23;101104.56;;;7.12;86.00
63088;BME280;49173;43.164;27.786;2024-02-28T01:38:49;101101.03;;;7.10;86.02
63088;BME280;49173;43.164;27.786;2024-02-28T01:41:14;101104.75;;;7.06;85.85
63088;BME280;49173;43.164;27.786;2024-02-28T01:43:40;101110.28;;;6.98;86.19
63088;BME280;49173;43.164;27.786;2024-02-28T01:46:17;101099.69;;;6.95;86.43
63088;BME280;49173;43.164;27.786;2024-02-28T01:48:45;101106.00;;;6.93;86.21
63088;BME280;49173;43.164;27.786;2024-02-28T01:51:11;101108.66;;;6.93;86.50
63088;BME280;49173;43.164;27.786;2024-02-28T01:53:38;101103.38;;;6.91;86.43
63088;BME280;49173;43.164;27.786;2024-02-28T01:56:03;101101.59;;;6.92;86.82
63088;BME280;49173;43.164;27.786;2024-02-28T01:58:29;101102.69;;;6.84;86.73
63088;BME280;49173;43.164;27.786;2024-02-28T02:00:55;101104.50;;;6.82;87.00
63088;BME280;49173;43.164;27.786;2024-02-28T02:03:21;101100.91;;;6.83;87.01
63088;BME280;49173;43.164;27.786;2024-02-28T02:05:46;101107.25;;;6.79;87.09
63088;BME280;49173;43.164;27.786;2024-02-28T02:08:12;101101.13;;;6.76;87.24
63088;BME280;49173;43.164;27.786;2024-02-28T02:10:37;101109.91;;;6.79;87.22
63088;BME280;49173;43.164;27.786;2024-02-28T02:13:06;101109.81;;;6.82;87.25
63088;BME280;49173;43.164;27.786;2024-02-28T02:15:32;101109.81;;;6.84;87.60
63088;BME280;49173;43.164;27.786;2024-02-28T02:17:57;101107.88;;;6.89;87.32
63088;BME280;49173;43.164;27.786;2024-02-28T02:20:23;101109.75;;;6.85;87.24
63088;BME280;49173;43.164;27.786;2024-02-28T02:22:53;101100.00;;;6.84;87.27
63088;BME280;49173;43.164;27.786;2024-02-28T02:25:18;101107.19;;;6.81;87.32
63088;BME280;49173;43.164;27.786;2024-02-28T02:27:44;101115.69;;;6.64;86.83
63088;BME280;49173;43.164;27.786;2024-02-28T02:30:10;101114.03;;;6.58;87.06
63088;BME280;49173;43.164;27.786;2024-02-28T02:32:35;101118.25;;;6.67;87.56
63088;BME280;49173;43.164;27.786;2024-02-28T02:35:01;101123.41;;;6.73;87.39
63088;BME280;49173;43.164;27.786;2024-02-28T02:37:27;101121.72;;;6.71;87.31
63088;BME280;49173;43.164;27.786;2024-02-28T02:39:53;101124.41;;;6.69;87.32
63088;BME280;49173;43.164;27.786;2024-02-28T02:42:19;101125.44;;;6.65;87.19
63088;BME280;49173;43.164;27.786;2024-02-28T02:44:44;101130.03;;;6.58;87.26
63088;BME280;49173;43.164;27.786;2024-02-28T02:47:10;101128.50;;;6.48;87.31
63088;BME280;49173;43.164;27.786;2024-02-28T02:49:35;101133.84;;;6.48;87.32
63088;BME280;49173;43.164;27.786;2024-02-28T02:52:01;101121.38;;;6.50;86.71
63088;BME280;49173;43.164;27.786;2024-02-28T02:54:26;101127.78;;;6.43;87.09
63088;BME280;49173;43.164;27.786;2024-02-28T02:56:52;101129.41;;;6.49;87.20
63088;BME280;49173;43.164;27.786;2024-02-28T02:59:35;101132.91;;;6.51;87.76
63088;BME280;49173;43.164;27.786;2024-02-28T03:02:01;101132.88;;;6.52;87.92
63088;BME280;49173;43.164;27.786;2024-02-28T03:04:26;101131.00;;;6.56;87.84
63088;BME280;49173;43.164;27.786;2024-02-28T03:06:52;101136.16;;;6.62;87.56
63088;BME280;49173;43.164;27.786;2024-02-28T03:09:18;101136.22;;;6.60;86.94
63088;BME280;49173;43.164;27.786;2024-02-28T03:11:43;101134.75;;;6.49;87.11
63088;BME280;49173;43.164;27.786;2024-02-28T03:14:09;101138.16;;;6.54;86.74
63088;BME280;49173;43.164;27.786;2024-02-28T03:16:34;101132.81;;;6.54;86.62
63088;BME280;49173;43.164;27.786;2024-02-28T03:19:02;101142.03;;;6.41;86.67
63088;BME280;49173;43.164;27.786;2024-02-28T03:21:28;101140.38;;;6.37;86.81
63088;BME280;49173;43.164;27.786;2024-02-28T03:23:54;101148.28;;;6.40;86.06
63088;BME280;49173;43.164;27.786;2024-02-28T03:26:19;101146.66;;;6.36;86.23
63088;BME280;49173;43.164;27.786;2024-02-28T03:28:47;101137.69;;;6.38;86.56
63088;BME280;49173;43.164;27.786;2024-02-28T03:31:12;101152.75;;;6.39;86.83
63088;BME280;49173;43.164;27.786;2024-02-28T03:33:38;101149.03;;;6.46;87.20
63088;BME280;49173;43.164;27.786;2024-02-28T03:36:03;101142.88;;;6.44;87.16
63088;BME280;49173;43.164;27.786;2024-02-28T03:38:29;101155.31;;;6.44;87.48
63088;BME280;49173;43.164;27.786;2024-02-28T03:40:55;101153.53;;;6.44;87.27
63088;BME280;49173;43.164;27.786;2024-02-28T03:43:20;101153.88;;;6.30;87.58
63088;BME280;49173;43.164;27.786;2024-02-28T03:45:46;101158.44;;;6.25;87.60
63088;BME280;49173;43.164;27.786;2024-02-28T03:48:12;101155.72;;;6.27;87.11
63088;BME280;49173;43.164;27.786;2024-02-28T03:50:37;101159.44;;;6.20;87.43
63088;BME280;49173;43.164;27.786;2024-02-28T03:53:03;101154.16;;;6.18;87.91
63088;BME280;49173;43.164;27.786;2024-02-28T03:55:29;101160.50;;;6.14;88.54
63088;BME280;49173;43.164;27.786;2024-02-28T03:57:55;101162.34;;;6.11;89.35
63088;BME280;49173;43.164;27.786;2024-02-28T04:00:20;101160.41;;;6.17;89.75
63088;BME280;49173;43.164;27.786;2024-02-28T04:02:46;101160.50;;;6.14;89.94
63088;BME280;49173;43.164;27.786;2024-02-28T04:05:12;101157.56;;;6.25;89.73
63088;BME280;49173;43.164;27.786;2024-02-28T04:07:37;101155.81;;;6.24;89.83
63088;BME280;49173;43.164;27.786;2024-02-28T04:10:03;101155.03;;;6.20;90.19
63088;BME280;49173;43.164;27.786;2024-02-28T04:12:30;101154.13;;;6.20;90.45
63088;BME280;49173;43.164;27.786;2024-02-28T04:14:56;101156.69;;;6.24;90.86
63088;BME280;49173;43.164;27.786;2024-02-28T04:17:21;101160.25;;;6.23;90.84
63088;BME280;49173;43.164;27.786;2024-02-28T04:19:47;101154.94;;;6.23;91.04
63088;BME280;49173;43.164;27.786;2024-02-28T04:22:14;101155.03;;;6.20;91.37
63088;BME280;49173;43.164;27.786;2024-02-28T04:24:40;101162.97;;;6.22;91.72
63088;BME280;49173;43.164;27.786;2024-02-28T04:27:05;101154.88;;;6.25;91.97
63088;BME280;49173;43.164;27.786;2024-02-28T04:29:31;101162.00;;;6.24;91.79
63088;BME280;49173;43.164;27.786;2024-02-28T04:31:56;101157.69;;;6.20;92.17
63088;BME280;49173;43.164;27.786;2024-02-28T04:34:22;101165.59;;;6.23;91.89
63088;BME280;49173;43.164;27.786;2024-02-28T04:36:47;101169.22;;;6.21;91.93
63088;BME280;49173;43.164;27.786;2024-02-28T04:39:13;101166.56;;;6.19;91.90
63088;BME280;49173;43.164;27.786;2024-02-28T04:41:38;101176.34;;;6.20;91.97
63088;BME280;49173;43.164;27.786;2024-02-28T04:44:04;101172.75;;;6.21;92.16
63088;BME280;49173;43.164;27.786;2024-02-28T04:46:29;101176.34;;;6.20;92.34
63088;BME280;49173;43.164;27.786;2024-02-28T04:48:55;101172.91;;;6.15;92.58
63088;BME280;49173;43.164;27.786;2024-02-28T04:51:21;101179.09;;;6.16;92.50
63088;BME280;49173;43.164;27.786;2024-02-28T04:53:46;101182.66;;;6.16;91.61
63088;BME280;49173;43.164;27.786;2024-02-28T04:56:12;101190.50;;;6.22;91.20
63088;BME280;49173;43.164;27.786;2024-02-28T04:58:37;101189.34;;;6.32;90.97
63088;BME280;49173;43.164;27.786;2024-02-28T05:01:03;101197.50;;;6.26;91.36
63088;BME280;49173;43.164;27.786;2024-02-28T05:03:28;101194.00;;;6.24;91.82
63088;BME280;49173;43.164;27.786;2024-02-28T05:05:54;101194.91;;;6.23;91.88
63088;BME280;49173;43.164;27.786;2024-02-28T05:08:20;101198.31;;;6.30;91.39
63088;BME280;49173;43.164;27.786;2024-02-28T05:10:46;101206.16;;;6.36;91.38
63088;BME280;49173;43.164;27.786;2024-02-28T05:13:12;101201.72;;;6.37;90.99
63088;BME280;49173;43.164;27.786;2024-02-28T05:15:38;101202.41;;;6.45;90.12
63088;BME280;49173;43.164;27.786;2024-02-28T05:18:03;101202.16;;;6.54;90.51
63088;BME280;49173;43.164;27.786;2024-02-28T05:20:29;101190.28;;;6.67;90.83
63088;BME280;49173;43.164;27.786;2024-02-28T05:22:54;101209.19;;;6.92;91.45
63088;BME280;49173;43.164;27.786;2024-02-28T05:25:20;101206.69;;;7.19;91.50
63088;BME280;49173;43.164;27.786;2024-02-28T05:27:45;101214.78;;;7.48;90.42
63088;BME280;49173;43.164;27.786;2024-02-28T05:30:11;101210.97;;;7.86;89.38
63088;BME280;49173;43.164;27.786;2024-02-28T05:32:37;101216.91;;;8.24;87.99
63088;BME280;49173;43.164;27.786;2024-02-28T05:35:02;101214.00;;;8.60;87.00
63088;BME280;49173;43.164;27.786;2024-02-28T05:37:28;101214.31;;;9.03;85.21
63088;BME280;49173;43.164;27.786;2024-02-28T05:39:53;101211.91;;;9.44;83.48
63088;BME280;49173;43.164;27.786;2024-02-28T05:42:19;101217.38;;;9.89;82.09
63088;BME280;49173;43.164;27.786;2024-02-28T05:44:47;101213.34;;;10.25;80.13
63088;BME280;49173;43.164;27.786;2024-02-28T05:47:13;101211.22;;;10.55;78.07
63088;BME280;49173;43.164;27.786;2024-02-28T05:49:39;101204.50;;;10.87;77.25
63088;BME280;49173;43.164;27.786;2024-02-28T05:52:05;101211.03;;;11.42;75.67
63088;BME280;49173;43.164;27.786;2024-02-28T05:54:30;101209.44;;;11.96;73.13
63088;BME280;49173;43.164;27.786;2024-02-28T05:56:56;101215.81;;;12.31;72.09
63088;BME280;49173;43.164;27.786;2024-02-28T05:59:22;101207.03;;;12.81;69.12
63088;BME280;49173;43.164;27.786;2024-02-28T06:01:47;101212.66;;;13.63;67.79
63088;BME280;49173;43.164;27.786;2024-02-28T06:04:13;101209.09;;;14.27;64.78
63088;BME280;49173;43.164;27.786;2024-02-28T06:06:38;101214.38;;;14.76;62.76
63088;BME280;49173;43.164;27.786;2024-02-28T06:09:04;101211.47;;;14.95;60.01
63088;BME280;49173;43.164;27.786;2024-02-28T06:11:29;101209.34;;;15.00;59.99
63088;BME280;49173;43.164;27.786;2024-02-28T06:13:55;101219.34;;;14.84;59.87
63088;BME280;49173;43.164;27.786;2024-02-28T06:16:20;101222.56;;;14.43;60.64
63088;BME280;49173;43.164;27.786;2024-02-28T06:18:46;101220.91;;;13.93;61.90
63088;BME280;49173;43.164;27.786;2024-02-28T06:21:12;101229.94;;;13.59;63.18
63088;BME280;49173;43.164;27.786;2024-02-28T06:23:38;101222.84;;;13.24;64.41
63088;BME280;49173;43.164;27.786;2024-02-28T06:26:04;101221.66;;;12.95;65.52
63088;BME280;49173;43.164;27.786;2024-02-28T06:28:29;101226.94;;;12.61;66.54
63088;BME280;49173;43.164;27.786;2024-02-28T06:30:55;101233.09;;;12.27;68.14
63088;BME280;49173;43.164;27.786;2024-02-28T06:33:21;101230.00;;;11.97;69.86
63088;BME280;49173;43.164;27.786;2024-02-28T06:35:46;101233.06;;;11.69;71.35
63088;BME280;49173;43.164;27.786;2024-02-28T06:38:12;101235.00;;;11.47;73.46
63088;BME280;49173;43.164;27.786;2024-02-28T06:40:37;101236.47;;;11.34;75.25
63088;BME280;49173;43.164;27.786;2024-02-28T06:43:03;101238.69;;;11.24;75.84
63088;BME280;49173;43.164;27.786;2024-02-28T06:45:30;101239.50;;;11.26;76.85
63088;BME280;49173;43.164;27.786;2024-02-28T06:47:55;101243.63;;;11.35;78.04
63088;BME280;49173;43.164;27.786;2024-02-28T06:50:21;101248.69;;;11.41;78.15
63088;BME280;49173;43.164;27.786;2024-02-28T06:52:47;101248.44;;;11.26;77.79
63088;BME280;49173;43.164;27.786;2024-02-28T06:55:12;101247.34;;;11.10;78.61
63088;BME280;49173;43.164;27.786;2024-02-28T06:57:40;101251.41;;;11.00;79.38
63088;BME280;49173;43.164;27.786;2024-02-28T07:00:06;101261.78;;;10.87;80.53
63088;BME280;49173;43.164;27.786;2024-02-28T07:02:35;101256.91;;;10.75;80.76
63088;BME280;49173;43.164;27.786;2024-02-28T07:05:01;101259.03;;;10.67;82.02
63088;BME280;49173;43.164;27.786;2024-02-28T07:07:28;101252.91;;;10.63;82.08
63088;BME280;49173;43.164;27.786;2024-02-28T07:09:53;101248.00;;;10.53;82.06
63088;BME280;49173;43.164;27.786;2024-02-28T07:12:19;101251.94;;;10.44;82.15
63088;BME280;49173;43.164;27.786;2024-02-28T07:14:45;101254.91;;;10.36;82.54
63088;BME280;49173;43.164;27.786;2024-02-28T07:17:10;101250.66;;;10.31;83.38
63088;BME280;49173;43.164;27.786;2024-02-28T07:19:36;101254.16;;;10.33;84.37
63088;BME280;49173;43.164;27.786;2024-02-28T07:22:01;101253.41;;;10.29;84.21
63088;BME280;49173;43.164;27.786;2024-02-28T07:24:28;101255.19;;;10.29;85.19
63088;BME280;49173;43.164;27.786;2024-02-28T07:26:53;101259.66;;;10.30;84.80
63088;BME280;49173;43.164;27.786;2024-02-28T07:29:19;101256.03;;;10.31;84.91
63088;BME280;49173;43.164;27.786;2024-02-28T07:31:44;101247.97;;;10.31;85.28
63088;BME280;49173;43.164;27.786;2024-02-28T07:34:10;101245.22;;;10.32;85.13
63088;BME280;49173;43.164;27.786;2024-02-28T07:36:37;101232.56;;;10.36;85.29
63088;BME280;49173;43.164;27.786;2024-02-28T07:39:03;101246.66;;;10.41;85.79
63088;BME280;49173;43.164;27.786;2024-02-28T07:41:28;101244.81;;;10.43;85.00
63088;BME280;49173;43.164;27.786;2024-02-28T07:43:54;101234.88;;;10.45;84.95
63088;BME280;49173;43.164;27.786;2024-02-28T07:46:19;101236.44;;;10.51;85.56
63088;BME280;49173;43.164;27.786;2024-02-28T07:48:45;101244.28;;;10.55;84.80
63088;BME280;49173;43.164;27.786;2024-02-28T07:51:10;101244.44;;;10.52;83.68
63088;BME280;49173;43.164;27.786;2024-02-28T07:53:36;101245.16;;;10.56;84.90
63088;BME280;49173;43.164;27.786;2024-02-28T07:56:02;101245.88;;;10.61;84.22
63088;BME280;49173;43.164;27.786;2024-02-28T07:58:28;101242.16;;;10.63;83.58
63088;BME280;49173;43.164;27.786;2024-02-28T08:00:53;101244.81;;;10.65;83.89
63088;BME280;49173;43.164;27.786;2024-02-28T08:03:19;101245.69;;;10.65;83.54
63088;BME280;49173;43.164;27.786;2024-02-28T08:05:45;101242.94;;;10.67;83.46
63088;BME280;49173;43.164;27.786;2024-02-28T08:08:11;101247.28;;;10.69;83.62
63088;BME280;49173;43.164;27.786;2024-02-28T08:10:37;101242.47;;;10.78;84.12
63088;BME280;49173;43.164;27.786;2024-02-28T08:13:03;101243.16;;;10.83;83.73
63088;BME280;49173;43.164;27.786;2024-02-28T08:15:30;101244.97;;;10.82;82.40
63088;BME280;49173;43.164;27.786;2024-02-28T08:17:55;101245.03;;;10.81;81.28
63088;BME280;49173;43.164;27.786;2024-02-28T08:20:21;101246.63;;;10.85;82.61
63088;BME280;49173;43.164;27.786;2024-02-28T08:22:46;101242.84;;;10.90;82.72
63088;BME280;49173;43.164;27.786;2024-02-28T08:25:12;101245.19;;;10.98;83.13
63088;BME280;49173;43.164;27.786;2024-02-28T08:27:38;101244.13;;;11.02;82.12
63088;BME280;49173;43.164;27.786;2024-02-28T08:30:04;101243.13;;;11.05;82.13
63088;BME280;49173;43.164;27.786;2024-02-28T08:32:32;101241.13;;;11.10;82.01
63088;BME280;49173;43.164;27.786;2024-02-28T08:34:59;101235.47;;;11.16;82.35
63088;BME280;49173;43.164;27.786;2024-02-28T08:37:25;101237.94;;;11.20;81.48
63088;BME280;49173;43.164;27.786;2024-02-28T08:39:52;101234.34;;;11.21;80.55
63088;BME280;49173;43.164;27.786;2024-02-28T08:42:22;101239.56;;;11.24;80.09
63088;BME280;49173;43.164;27.786;2024-02-28T08:44:47;101238.63;;;11.25;80.23
63088;BME280;49173;43.164;27.786;2024-02-28T08:47:13;101244.69;;;11.31;80.39
63088;BME280;49173;43.164;27.786;2024-02-28T08:49:39;101237.41;;;11.33;79.79
63088;BME280;49173;43.164;27.786;2024-02-28T08:52:05;101244.53;;;11.34;79.79
63088;BME280;49173;43.164;27.786;2024-02-28T08:54:30;101253.44;;;11.36;79.51
63088;BME280;49173;43.164;27.786;2024-02-28T08:56:56;101247.09;;;11.37;79.57
63088;BME280;49173;43.164;27.786;2024-02-28T08:59:22;101255.03;;;11.40;79.60
63088;BME280;49173;43.164;27.786;2024-02-28T09:01:48;101254.03;;;11.42;79.30
63088;BME280;49173;43.164;27.786;2024-02-28T09:04:13;101247.81;;;11.40;79.03
63088;BME280;49173;43.164;27.786;2024-02-28T09:06:39;101253.72;;;11.48;79.33
63088;BME280;49173;43.164;27.786;2024-02-28T09:09:04;101254.56;;;11.50;79.73
63088;BME280;49173;43.164;27.786;2024-02-28T09:11:30;101254.63;;;11.49;78.90
63088;BME280;49173;43.164;27.786;2024-02-28T09:13:55;101244.75;;;11.49;78.67
63088;BME280;49173;43.164;27.786;2024-02-28T09:16:21;101246.56;;;11.49;78.67
63088;BME280;49173;43.164;27.786;2024-02-28T09:18:47;101255.50;;;11.49;78.19
63088;BME280;49173;43.164;27.786;2024-02-28T09:21:12;101253.63;;;11.51;78.39
63088;BME280;49173;43.164;27.786;2024-02-28T09:23:38;101248.09;;;11.54;78.81
63088;BME280;49173;43.164;27.786;2024-02-28T09:26:05;101261.34;;;11.59;79.11
63088;BME280;49173;43.164;27.786;2024-02-28T09:28:31;101246.94;;;11.60;78.64
63088;BME280;49173;43.164;27.786;2024-02-28T09:30:56;101253.06;;;11.64;78.61
63088;BME280;49173;43.164;27.786;2024-02-28T09:33:22;101253.94;;;11.64;78.73
63088;BME280;49173;43.164;27.786;2024-02-28T09:35:48;101250.22;;;11.67;77.76
63088;BME280;49173;43.164;27.786;2024-02-28T09:38:13;101245.72;;;11.67;78.08
63088;BME280;49173;43.164;27.786;2024-02-28T09:40:39;101252.84;;;11.68;77.70
63088;BME280;49173;43.164;27.786;2024-02-28T09:43:05;101251.69;;;11.74;78.67
63088;BME280;49173;43.164;27.786;2024-02-28T09:45:36;101256.88;;;11.78;78.39
63088;BME280;49173;43.164;27.786;2024-02-28T09:48:02;101255.00;;;11.80;78.19
63088;BME280;49173;43.164;27.786;2024-02-28T09:50:28;101254.75;;;11.87;78.04
63088;BME280;49173;43.164;27.786;2024-02-28T09:52:54;101254.59;;;11.90;78.31
63088;BME280;49173;43.164;27.786;2024-02-28T09:55:20;101258.09;;;11.92;77.51
63088;BME280;49173;43.164;27.786;2024-02-28T09:57:49;101248.84;;;11.97;77.38
63088;BME280;49173;43.164;27.786;2024-02-28T10:00:17;101248.63;;;12.02;77.41
63088;BME280;49173;43.164;27.786;2024-02-28T10:02:45;101242.19;;;12.06;77.03
63088;BME280;49173;43.164;27.786;2024-02-28T10:05:12;101240.38;;;12.06;77.08
63088;BME280;49173;43.164;27.786;2024-02-28T10:07:37;101239.13;;;12.14;76.57
63088;BME280;49173;43.164;27.786;2024-02-28T10:10:03;101246.09;;;12.18;76.69
63088;BME280;49173;43.164;27.786;2024-02-28T10:12:29;101245.97;;;12.21;76.93
63088;BME280;49173;43.164;27.786;2024-02-28T10:14:54;101234.03;;;12.26;76.78
63088;BME280;49173;43.164;27.786;2024-02-28T10:17:20;101240.22;;;12.28;76.11
63088;BME280;49173;43.164;27.786;2024-02-28T10:19:45;101232.78;;;12.33;77.42
63088;BME280;49173;43.164;27.786;2024-02-28T10:22:12;101225.34;;;12.38;77.18
63088;BME280;49173;43.164;27.786;2024-02-28T10:24:38;101227.81;;;12.43;76.49
63088;BME280;49173;43.164;27.786;2024-02-28T10:27:04;101227.91;;;12.42;76.23
63088;BME280;49173;43.164;27.786;2024-02-28T10:29:29;101224.19;;;12.44;76.61
63088;BME280;49173;43.164;27.786;2024-02-28T10:31:58;101221.50;;;12.44;74.89
63088;BME280;49173;43.164;27.786;2024-02-28T10:34:23;101218.22;;;12.37;75.93
63088;BME280;49173;43.164;27.786;2024-02-28T10:36:49;101224.56;;;12.36;75.69
63088;BME280;49173;43.164;27.786;2024-02-28T10:39:15;101216.78;;;12.30;76.45
63088;BME280;49173;43.164;27.786;2024-02-28T10:41:41;101224.63;;;12.35;76.13
63088;BME280;49173;43.164;27.786;2024-02-28T10:44:07;101220.13;;;12.35;76.04
63088;BME280;49173;43.164;27.786;2024-02-28T10:46:33;101214.75;;;12.35;76.41
63088;BME280;49173;43.164;27.786;2024-02-28T10:48:58;101210.16;;;12.37;75.01
63088;BME280;49173;43.164;27.786;2024-02-28T10:51:24;101215.81;;;12.31;74.80
63088;BME280;49173;43.164;27.786;2024-02-28T10:54:10;101208.03;;;12.25;75.49
63088;BME280;49173;43.164;27.786;2024-02-28T10:56:37;101208.88;;;12.27;76.40
63088;BME280;49173;43.164;27.786;2024-02-28T10:59:02;101202.38;;;12.31;75.43
63088;BME280;49173;43.164;27.786;2024-02-28T11:01:31;101194.22;;;12.33;75.82
63088;BME280;49173;43.164;27.786;2024-02-28T11:03:57;101195.97;;;12.34;75.57
63088;BME280;49173;43.164;27.786;2024-02-28T11:06:23;101195.97;;;12.34;75.82
63088;BME280;49173;43.164;27.786;2024-02-28T11:08:48;101205.78;;;12.35;76.24
63088;BME280;49173;43.164;27.786;2024-02-28T11:11:18;101203.81;;;12.38;75.60
63088;BME280;49173;43.164;27.786;2024-02-28T11:13:55;101194.00;;;12.37;75.63
63088;BME280;49173;43.164;27.786;2024-02-28T11:16:28;101203.69;;;12.42;75.67
63088;BME280;49173;43.164;27.786;2024-02-28T11:18:54;101193.78;;;12.42;75.13
63088;BME280;49173;43.164;27.786;2024-02-28T11:21:19;101192.03;;;12.41;74.95
63088;BME280;49173;43.164;27.786;2024-02-28T11:23:48;101196.59;;;12.39;74.90
63088;BME280;49173;43.164;27.786;2024-02-28T11:26:14;101189.78;;;12.32;75.37
63088;BME280;49173;43.164;27.786;2024-02-28T11:28:40;101182.66;;;12.31;75.55
63088;BME280;49173;43.164;27.786;2024-02-28T11:31:05;101185.25;;;12.32;76.09
63088;BME280;49173;43.164;27.786;2024-02-28T11:33:31;101180.22;;;12.44;76.43
63088;BME280;49173;43.164;27.786;2024-02-28T11:35:59;101174.53;;;12.50;75.87
63088;BME280;49173;43.164;27.786;2024-02-28T11:38:25;101171.56;;;12.56;75.07
63088;BME280;49173;43.164;27.786;2024-02-28T11:40:51;101166.94;;;12.58;74.45
63088;BME280;49173;43.164;27.786;2024-02-28T11:43:17;101164.09;;;12.61;74.44
63088;BME280;49173;43.164;27.786;2024-02-28T11:45:45;101163.94;;;12.64;73.64
63088;BME280;49173;43.164;27.786;2024-02-28T11:48:14;101171.00;;;12.67;74.08
63088;BME280;49173;43.164;27.786;2024-02-28T11:50:40;101151.91;;;12.71;74.64
63088;BME280;49173;43.164;27.786;2024-02-28T11:53:06;101162.38;;;12.77;74.05
63088;BME280;49173;43.164;27.786;2024-02-28T11:55:33;101160.63;;;12.76;73.22
63088;BME280;49173;43.164;27.786;2024-02-28T11:57:58;101158.81;;;12.77;73.65
63088;BME280;49173;43.164;27.786;2024-02-28T12:00:24;101156.91;;;12.79;73.80
63088;BME280;49173;43.164;27.786;2024-02-28T12:02:49;101156.91;;;12.79;74.04
63088;BME280;49173;43.164;27.786;2024-02-28T12:05:15;101170.53;;;12.76;73.80
63088;BME280;49173;43.164;27.786;2024-02-28T12:07:42;101166.25;;;12.72;73.59
63088;BME280;49173;43.164;27.786;2024-02-28T12:10:08;101167.28;;;12.69;73.54
63088;BME280;49173;43.164;27.786;2024-02-28T12:12:34;101162.31;;;12.61;73.30
63088;BME280;49173;43.164;27.786;2024-02-28T12:15:01;101162.22;;;12.63;74.35
63088;BME280;49173;43.164;27.786;2024-02-28T12:17:28;101162.78;;;12.70;74.79
63088;BME280;49173;43.164;27.786;2024-02-28T12:19:54;101160.00;;;12.71;72.99
63088;BME280;49173;43.164;27.786;2024-02-28T12:22:20;101153.09;;;12.65;74.37
63088;BME280;49173;43.164;27.786;2024-02-28T12:24:46;101153.47;;;12.75;75.63
63088;BME280;49173;43.164;27.786;2024-02-28T12:27:11;101157.13;;;12.74;74.49
63088;BME280;49173;43.164;27.786;2024-02-28T12:29:37;101148.28;;;12.72;73.70
63088;BME280;49173;43.164;27.786;2024-02-28T12:32:02;101155.47;;;12.72;74.33
63088;BME280;49173;43.164;27.786;2024-02-28T12:34:28;101156.44;;;12.71;74.20
63088;BME280;49173;43.164;27.786;2024-02-28T12:36:54;101158.34;;;12.69;74.66
63088;BME280;49173;43.164;27.786;2024-02-28T12:39:19;101151.91;;;12.71;74.60